Time;durP1;ratioP1;P1;durP2;ratioP2;P2;SDS_P1;SDS_P2;PMS_P1;PMS_P2;Temp;Humidity;BMP_temperature;BMP_pressure;BME280_temperature;BME280_humidity;BME280_pressure;Samples;Min_cycle;Max_cycle;Signal;HPM_P1;HPM_P2
2024/03/31 00:00:23;;;;;;;81.60;9.13;;;19.70;32.00;;;;;;5038020;28;20476;-79
2024/03/31 00:02:51;;;;;;;80.20;8.75;;;19.70;32.40;;;;;;5076890;28;20071;-78
2024/03/31 00:05:17;;;;;;;101.07;9.43;;;19.60;32.40;;;;;;5030313;28;20056;-78
2024/03/31 00:07:43;;;;;;;102.25;9.85;;;19.50;32.40;;;;;;5038468;28;20079;-78
2024/03/31 00:10:12;;;;;;;109.00;11.52;;;19.60;32.30;;;;;;5037289;28;20454;-79
2024/03/31 00:12:43;;;;;;;103.40;10.63;;;19.50;32.50;;;;;;5054632;28;20059;-80
2024/03/31 00:15:09;;;;;;;91.40;10.30;;;19.60;32.20;;;;;;5037885;28;20044;-78
2024/03/31 00:17:35;;;;;;;83.75;9.35;;;19.50;32.50;;;;;;5054886;28;20098;-79
2024/03/31 00:20:01;;;;;;;89.35;9.00;;;19.50;32.80;;;;;;5038102;28;20041;-79
2024/03/31 00:22:27;;;;;;;91.28;10.10;;;19.50;32.80;;;;;;5037769;28;20049;-77
2024/03/31 00:24:53;;;;;;;95.32;9.82;;;19.50;32.80;;;;;;5037907;28;20052;-79
2024/03/31 00:27:21;;;;;;;96.95;9.57;;;19.50;33.00;;;;;;5037924;28;20082;-79
2024/03/31 00:29:49;;;;;;;97.32;10.43;;;19.50;33.20;;;;;;5054727;28;20075;-79
2024/03/31 00:32:17;;;;;;;102.50;11.10;;;19.40;33.20;;;;;;5038163;28;20052;-79
2024/03/31 00:34:43;;;;;;;102.47;11.32;;;19.40;33.40;;;;;;5054037;28;20048;-79
2024/03/31 00:37:09;;;;;;;92.22;9.52;;;19.50;33.50;;;;;;5054266;28;20105;-78
2024/03/31 00:39:35;;;;;;;83.38;9.25;;;19.40;33.50;;;;;;5054658;28;20056;-77
2024/03/31 00:42:03;;;;;;;67.18;8.32;;;19.30;33.50;;;;;;5054287;28;20426;-79
2024/03/31 00:44:29;;;;;;;81.93;8.85;;;19.30;33.50;;;;;;5037810;28;20060;-78
2024/03/31 00:46:57;;;;;;;69.75;7.95;;;19.30;33.70;;;;;;5038038;28;20057;-78
2024/03/31 00:49:23;;;;;;;96.45;8.68;;;19.30;33.60;;;;;;5053923;28;20076;-79
2024/03/31 00:51:49;;;;;;;79.80;10.15;;;19.20;33.60;;;;;;5054582;28;20044;-78
2024/03/31 00:54:15;;;;;;;89.38;9.77;;;19.20;33.70;;;;;;5037376;28;20480;-79
2024/03/31 00:56:41;;;;;;;59.92;8.77;;;19.10;33.90;;;;;;5054458;28;20099;-80
2024/03/31 00:59:07;;;;;;;88.20;8.50;;;19.10;34.20;;;;;;5041030;28;20475;-78
2024/03/31 01:01:33;;;;;;;93.88;8.40;;;19.00;34.60;;;;;;5040603;28;20048;-79
2024/03/31 01:03:59;;;;;;;74.50;7.75;;;19.00;34.60;;;;;;5057786;28;20053;-78
2024/03/31 01:06:28;;;;;;;95.47;8.18;;;19.00;34.50;;;;;;5041616;28;20113;-79
2024/03/31 01:08:54;;;;;;;88.65;8.95;;;18.90;34.40;;;;;;5041279;28;20056;-79
2024/03/31 01:11:21;;;;;;;83.00;8.68;;;18.90;34.20;;;;;;5057981;28;20052;-78
2024/03/31 01:13:48;;;;;;;70.90;8.13;;;18.90;34.00;;;;;;5040993;28;20056;-78
2024/03/31 01:16:14;;;;;;;71.25;7.90;;;18.90;34.60;;;;;;5057738;28;20059;-80
2024/03/31 01:18:40;;;;;;;70.13;8.38;;;18.80;34.80;;;;;;5041189;28;20059;-78
2024/03/31 01:21:08;;;;;;;72.15;7.40;;;18.80;35.40;;;;;;5040920;28;20045;-79
2024/03/31 01:23:44;;;;;;;63.95;8.40;;;18.70;35.80;;;;;;5057469;28;20048;-79
2024/03/31 01:26:10;;;;;;;80.78;8.65;;;18.60;35.80;;;;;;5040972;28;20109;-79
2024/03/31 01:28:37;;;;;;;82.85;8.40;;;18.60;35.90;;;;;;5054036;28;20052;-79
2024/03/31 01:31:03;;;;;;;74.78;8.43;;;18.60;35.80;;;;;;5040971;28;20044;-80
2024/03/31 01:33:31;;;;;;;68.63;9.07;;;18.50;35.70;;;;;;5041000;28;20053;-79
2024/03/31 01:36:01;;;;;;;79.10;8.77;;;18.50;35.40;;;;;;5069271;28;20045;-79
2024/03/31 01:38:27;;;;;;;67.97;8.57;;;18.50;35.60;;;;;;5021753;28;20060;-78
2024/03/31 01:40:53;;;;;;;77.05;9.02;;;18.50;35.40;;;;;;5037215;28;20068;-78
2024/03/31 01:43:20;;;;;;;81.82;9.43;;;18.50;35.60;;;;;;5021100;28;20052;-78
2024/03/31 01:45:46;;;;;;;74.30;8.48;;;18.50;35.50;;;;;;5020859;28;20060;-79
2024/03/31 01:48:12;;;;;;;93.05;9.60;;;18.50;35.60;;;;;;5035659;28;20107;-79
2024/03/31 01:50:38;;;;;;;71.22;8.45;;;18.40;35.50;;;;;;5020675;28;20048;-79
2024/03/31 01:53:04;;;;;;;73.10;9.40;;;18.40;35.60;;;;;;5020742;28;20057;-79
2024/03/31 01:55:30;;;;;;;75.28;8.38;;;18.40;35.90;;;;;;5016582;28;20056;-79
2024/03/31 01:57:56;;;;;;;73.38;7.90;;;18.40;36.00;;;;;;5020644;28;20389;-79
2024/03/31 02:00:22;;;;;;;78.68;8.35;;;18.40;36.20;;;;;;5020458;28;20056;-79
2024/03/31 02:02:50;;;;;;;78.18;9.30;;;18.40;36.20;;;;;;5020490;28;20049;-80
2024/03/31 02:05:16;;;;;;;79.78;9.27;;;18.30;36.20;;;;;;5020031;28;20064;-78
2024/03/31 02:07:42;;;;;;;92.55;9.85;;;18.30;36.50;;;;;;5036682;28;20048;-78
2024/03/31 02:10:10;;;;;;;91.30;11.27;;;18.20;36.70;;;;;;5017693;28;20081;-79
2024/03/31 02:12:39;;;;;;;96.88;9.55;;;18.30;36.40;;;;;;5020558;28;20053;-79
2024/03/31 02:15:05;;;;;;;78.95;9.27;;;18.20;36.40;;;;;;5019392;28;20110;-79
2024/03/31 02:17:31;;;;;;;83.38;8.95;;;18.20;36.70;;;;;;5036597;28;20457;-79
2024/03/31 02:19:57;;;;;;;74.72;8.73;;;18.20;36.90;;;;;;5036673;28;20090;-78
2024/03/31 02:22:23;;;;;;;93.60;10.18;;;18.20;37.10;;;;;;5017174;28;20397;-79
2024/03/31 02:24:49;;;;;;;75.63;8.88;;;18.10;36.90;;;;;;5036403;28;20049;-79
2024/03/31 02:27:17;;;;;;;91.68;8.90;;;18.10;37.40;;;;;;5020053;28;20067;-79
2024/03/31 02:29:43;;;;;;;81.93;10.82;;;18.10;37.50;;;;;;5036304;28;20063;-79
2024/03/31 02:32:09;;;;;;;76.18;8.52;;;18.00;38.00;;;;;;5036426;28;20045;-79
2024/03/31 02:34:37;;;;;;;61.80;8.63;;;17.90;38.40;;;;;;5036270;28;20045;-78
2024/03/31 02:37:03;;;;;;;76.63;9.27;;;17.90;38.60;;;;;;5044212;28;20061;-79
2024/03/31 02:39:29;;;;;;;75.88;8.80;;;17.80;38.80;;;;;;5039753;28;20056;-79
2024/03/31 02:41:55;;;;;;;96.40;9.00;;;17.80;38.90;;;;;;5041623;28;20454;-78
2024/03/31 02:44:21;;;;;;;91.38;8.93;;;17.70;39.50;;;;;;5041480;28;20099;-79
2024/03/31 02:46:47;;;;;;;81.45;9.48;;;17.60;41.60;;;;;;5039204;28;20071;-79
2024/03/31 02:49:13;;;;;;;99.55;10.10;;;17.30;41.50;;;;;;5056208;28;20139;-78
2024/03/31 02:51:42;;;;;;;86.15;8.93;;;17.20;42.00;;;;;;5039655;28;20056;-78
2024/03/31 02:54:08;;;;;;;81.05;8.98;;;17.10;42.50;;;;;;5055924;28;20049;-78
2024/03/31 02:56:34;;;;;;;81.07;8.20;;;17.00;42.90;;;;;;5038999;28;20421;-78
2024/03/31 02:59:00;;;;;;;84.38;9.32;;;16.90;43.20;;;;;;5039042;28;20052;-78
2024/03/31 03:01:26;;;;;;;70.35;9.70;;;16.80;43.60;;;;;;5031607;28;20088;-80
2024/03/31 03:03:52;;;;;;;62.67;7.68;;;16.70;43.70;;;;;;5039863;28;20052;-78
2024/03/31 03:06:18;;;;;;;88.07;8.15;;;16.70;44.00;;;;;;5039307;28;20063;-78
2024/03/31 03:08:44;;;;;;;68.90;7.25;;;16.60;43.70;;;;;;5043802;28;20049;-79
2024/03/31 03:11:10;;;;;;;78.55;8.07;;;16.50;44.40;;;;;;5055446;28;20063;-78
2024/03/31 03:13:35;;;;;;;66.00;9.27;;;16.40;44.70;;;;;;5055704;28;20064;-79
2024/03/31 03:16:05;;;;;;;74.70;8.85;;;16.30;45.40;;;;;;5055115;28;20403;-78
2024/03/31 03:18:34;;;;;;;82.28;9.55;;;16.20;45.30;;;;;;5055496;28;20044;-79
2024/03/31 03:21:00;;;;;;;73.68;10.00;;;16.20;46.30;;;;;;5038630;28;20052;-79
2024/03/31 03:23:28;;;;;;;78.43;9.15;;;16.10;46.50;;;;;;5055796;28;20365;-78
2024/03/31 03:25:55;;;;;;;95.65;10.55;;;16.10;46.30;;;;;;5055607;28;20048;-79
2024/03/31 03:28:21;;;;;;;66.72;8.65;;;16.00;47.30;;;;;;5038453;28;20086;-79
2024/03/31 03:30:47;;;;;;;73.53;8.80;;;15.90;47.50;;;;;;5038942;28;20060;-79
2024/03/31 03:33:18;;;;;;;76.85;9.20;;;15.90;48.20;;;;;;5054915;28;20107;-79
2024/03/31 03:35:47;;;;;;;76.15;10.32;;;15.80;47.50;;;;;;5037768;28;20481;-79
2024/03/31 03:38:13;;;;;;;91.53;11.00;;;15.70;48.50;;;;;;5035376;28;20079;-78
2024/03/31 03:40:39;;;;;;;92.57;9.88;;;15.60;48.60;;;;;;5038428;28;20045;-78
2024/03/31 03:43:05;;;;;;;74.78;10.43;;;15.50;48.80;;;;;;5055244;28;20117;-79
2024/03/31 03:45:32;;;;;;;85.75;9.55;;;15.50;49.00;;;;;;5030260;28;20079;-77
2024/03/31 03:48:00;;;;;;;88.60;8.48;;;15.50;49.60;;;;;;5038528;28;20985;-77
2024/03/31 03:50:26;;;;;;;67.10;10.57;;;15.40;50.20;;;;;;5038643;28;20056;-76
2024/03/31 03:52:53;;;;;;;78.50;9.38;;;15.40;50.40;;;;;;5068233;28;20060;-76
2024/03/31 03:55:19;;;;;;;74.35;9.57;;;15.30;50.40;;;;;;5047288;28;20052;-77
2024/03/31 03:57:45;;;;;;;83.50;9.55;;;15.20;50.40;;;;;;5033986;28;20052;-77
2024/03/31 04:00:11;;;;;;;74.10;8.60;;;15.10;50.80;;;;;;5054663;28;20076;-76
2024/03/31 04:02:39;;;;;;;68.88;9.65;;;15.10;51.10;;;;;;5038244;28;20055;-76
2024/03/31 04:05:05;;;;;;;77.97;8.82;;;15.00;52.00;;;;;;5038226;28;20060;-76
2024/03/31 04:07:31;;;;;;;65.93;8.35;;;14.90;51.90;;;;;;5038361;28;20117;-77
2024/03/31 04:09:59;;;;;;;66.05;9.00;;;14.80;51.90;;;;;;5023635;28;20100;-77
2024/03/31 04:12:30;;;;;;;75.85;8.38;;;14.80;52.10;;;;;;5054829;28;20396;-76
2024/03/31 04:15:00;;;;;;;66.18;7.82;;;14.70;52.40;;;;;;5036947;28;20048;-77
2024/03/31 04:17:26;;;;;;;63.38;9.00;;;14.70;53.10;;;;;;5052389;28;20067;-76
2024/03/31 04:19:52;;;;;;;58.28;7.85;;;14.70;53.00;;;;;;5037769;28;20053;-76
2024/03/31 04:22:18;;;;;;;89.47;9.20;;;14.60;53.60;;;;;;5038328;28;20088;-76
2024/03/31 04:24:46;;;;;;;66.75;7.18;;;14.50;53.50;;;;;;5038287;28;20472;-77
2024/03/31 04:27:12;;;;;;;74.90;9.55;;;14.50;54.00;;;;;;5037951;28;20393;-76
2024/03/31 04:29:38;;;;;;;78.55;8.23;;;14.40;53.90;;;;;;5038044;28;20052;-78
2024/03/31 04:32:04;;;;;;;84.60;9.93;;;14.40;54.20;;;;;;5038742;28;20061;-77
2024/03/31 04:34:32;;;;;;;71.03;10.82;;;14.40;53.80;;;;;;5058315;28;20099;-76
2024/03/31 04:36:58;;;;;;;89.57;10.18;;;14.40;54.00;;;;;;5058586;28;20146;-77
2024/03/31 04:39:26;;;;;;;81.40;9.27;;;14.30;52.60;;;;;;5042804;28;20056;-77
2024/03/31 04:41:55;;;;;;;101.55;12.07;;;14.40;51.40;;;;;;5055598;28;20044;-76
2024/03/31 04:44:21;;;;;;;89.15;10.80;;;14.60;48.80;;;;;;5041835;28;20392;-76
2024/03/31 04:46:49;;;;;;;102.80;11.02;;;15.10;46.30;;;;;;5027173;28;20060;-77
2024/03/31 04:49:18;;;;;;;106.82;11.88;;;15.40;45.40;;;;;;5071443;28;20064;-82
2024/03/31 04:51:47;;;;;;;109.95;11.20;;;15.90;44.10;;;;;;5041908;28;20064;-77
2024/03/31 04:54:16;;;;;;;97.50;10.52;;;16.20;43.60;;;;;;5058220;28;20044;-77
2024/03/31 04:56:42;;;;;;;93.35;11.15;;;16.60;42.50;;;;;;5058207;28;20044;-77
2024/03/31 04:59:10;;;;;;;95.32;10.77;;;16.80;42.10;;;;;;5058060;28;20053;-77
2024/03/31 05:01:36;;;;;;;111.38;11.93;;;17.20;41.10;;;;;;5067890;28;20048;-77
2024/03/31 05:04:02;;;;;;;109.35;12.43;;;17.50;40.50;;;;;;5041419;28;20127;-77
2024/03/31 05:06:28;;;;;;;97.55;11.27;;;17.70;39.80;;;;;;5069582;28;20045;-77
2024/03/31 05:08:54;;;;;;;90.40;9.90;;;18.00;39.00;;;;;;5058334;28;20048;-77
2024/03/31 05:11:19;;;;;;;85.68;11.10;;;18.30;38.40;;;;;;5040938;28;20079;-76
2024/03/31 05:13:45;;;;;;;98.47;10.77;;;18.60;37.90;;;;;;5040328;28;20095;-77
2024/03/31 05:16:11;;;;;;;101.00;10.38;;;18.70;37.80;;;;;;5041497;28;20477;-77
2024/03/31 05:18:40;;;;;;;101.45;13.15;;;18.80;37.50;;;;;;5041677;28;20163;-77
2024/03/31 05:21:09;;;;;;;96.95;11.73;;;18.90;37.30;;;;;;5036931;28;20056;-77
2024/03/31 05:23:37;;;;;;;88.78;11.32;;;19.00;37.30;;;;;;5056537;28;20073;-77
2024/03/31 05:26:10;;;;;;;97.20;11.73;;;19.00;37.30;;;;;;5036504;28;20135;-77
2024/03/31 05:28:36;;;;;;;124.22;12.07;;;19.00;37.00;;;;;;5041226;28;20098;-77
2024/03/31 05:31:03;;;;;;;91.55;10.65;;;19.10;37.10;;;;;;5057576;28;20084;-77
2024/03/31 05:33:32;;;;;;;90.55;10.48;;;19.10;36.90;;;;;;5056599;28;20044;-77
2024/03/31 05:35:58;;;;;;;115.05;11.50;;;19.10;36.90;;;;;;5040663;28;20127;-77
2024/03/31 05:38:29;;;;;;;103.18;10.05;;;19.20;36.80;;;;;;5040235;28;20139;-77
2024/03/31 05:40:56;;;;;;;100.88;11.23;;;19.20;36.90;;;;;;5054735;28;20060;-78
2024/03/31 05:43:24;;;;;;;115.53;10.27;;;19.30;36.70;;;;;;5043126;28;20477;-78
2024/03/31 05:45:50;;;;;;;90.40;10.98;;;19.30;36.80;;;;;;5039516;28;20071;-77
2024/03/31 05:48:16;;;;;;;106.65;11.82;;;19.30;36.70;;;;;;5049173;28;20045;-77
2024/03/31 05:50:42;;;;;;;84.47;10.10;;;19.30;37.00;;;;;;5040631;28;20075;-78
2024/03/31 05:53:07;;;;;;;92.57;11.88;;;19.30;36.50;;;;;;5041375;28;20055;-78
2024/03/31 05:55:36;;;;;;;83.75;10.20;;;19.30;36.60;;;;;;5040326;28;20385;-77
2024/03/31 05:58:01;;;;;;;94.55;11.35;;;19.40;36.40;;;;;;5057167;28;20412;-79
2024/03/31 06:00:27;;;;;;;82.78;9.63;;;19.40;36.70;;;;;;5039742;28;20044;-79
2024/03/31 06:02:53;;;;;;;79.35;9.40;;;19.30;36.80;;;;;;5037384;28;20052;-77
2024/03/31 06:05:20;;;;;;;87.38;9.50;;;19.40;36.70;;;;;;5039348;28;20067;-77
2024/03/31 06:07:49;;;;;;;90.80;8.95;;;19.30;36.80;;;;;;5040208;28;20067;-77
2024/03/31 06:10:16;;;;;;;95.38;10.65;;;19.30;36.90;;;;;;5053323;28;20064;-77
2024/03/31 06:12:42;;;;;;;78.90;9.38;;;19.30;36.90;;;;;;5039518;28;20060;-78
2024/03/31 06:15:08;;;;;;;93.05;10.73;;;19.30;37.00;;;;;;5039021;28;20044;-78
2024/03/31 06:17:35;;;;;;;91.90;9.98;;;19.30;37.10;;;;;;5057030;28;20476;-78
2024/03/31 06:20:04;;;;;;;58.75;9.60;;;19.20;37.20;;;;;;5040239;28;20060;-78
2024/03/31 06:22:31;;;;;;;82.50;11.15;;;19.20;37.40;;;;;;5052794;28;20110;-77
2024/03/31 06:24:57;;;;;;;77.40;9.20;;;19.20;37.30;;;;;;5039637;28;20477;-77
2024/03/31 06:27:25;;;;;;;76.25;8.80;;;19.30;37.40;;;;;;5040047;28;20066;-77
2024/03/31 06:29:51;;;;;;;96.65;11.30;;;19.40;37.40;;;;;;5053331;28;20052;-77
2024/03/31 06:32:17;;;;;;;78.85;9.05;;;19.50;37.20;;;;;;5048348;28;20057;-78
2024/03/31 06:34:45;;;;;;;69.03;8.93;;;19.60;37.20;;;;;;5039553;28;20060;-77
2024/03/31 06:37:11;;;;;;;73.70;8.48;;;19.80;37.10;;;;;;5052249;28;20056;-77
2024/03/31 06:39:37;;;;;;;82.65;9.25;;;19.90;36.60;;;;;;5039247;28;20056;-77
2024/03/31 06:42:05;;;;;;;80.22;8.60;;;20.10;36.30;;;;;;5038469;28;20067;-78
2024/03/31 06:44:31;;;;;;;109.68;11.13;;;20.20;36.30;;;;;;5035183;28;20044;-78
2024/03/31 06:46:57;;;;;;;82.20;8.63;;;20.20;36.40;;;;;;5039671;28;20058;-78
2024/03/31 06:49:23;;;;;;;67.30;10.02;;;20.30;36.50;;;;;;5037185;28;20060;-78
2024/03/31 06:51:51;;;;;;;87.88;9.82;;;20.30;36.50;;;;;;5047347;28;20057;-78
2024/03/31 06:54:17;;;;;;;73.80;9.45;;;20.30;36.20;;;;;;5050801;28;20120;-78
2024/03/31 06:56:45;;;;;;;84.65;10.00;;;20.30;36.20;;;;;;5055094;28;20059;-78
2024/03/31 06:59:11;;;;;;;78.80;10.68;;;20.40;36.30;;;;;;5056301;28;20075;-78
2024/03/31 07:01:37;;;;;;;66.13;8.93;;;20.40;36.20;;;;;;5038503;28;20048;-78
2024/03/31 07:04:03;;;;;;;83.88;8.95;;;20.40;36.20;;;;;;5053899;28;20052;-78
2024/03/31 07:06:31;;;;;;;76.57;9.85;;;20.40;36.00;;;;;;5039439;28;20362;-78
2024/03/31 07:08:57;;;;;;;66.20;8.52;;;20.50;36.20;;;;;;5039503;28;20052;-78
2024/03/31 07:11:26;;;;;;;60.50;8.50;;;20.60;35.80;;;;;;5055417;28;20087;-78
2024/03/31 07:13:51;;;;;;;57.47;7.60;;;20.70;36.00;;;;;;5039075;28;20401;-78
2024/03/31 07:16:19;;;;;;;64.45;7.40;;;20.70;35.60;;;;;;5057883;28;20118;-78
2024/03/31 07:18:45;;;;;;;62.13;8.65;;;20.80;35.30;;;;;;5035582;28;20067;-79
2024/03/31 07:21:14;;;;;;;68.38;8.75;;;20.90;35.10;;;;;;5038751;28;20052;-79
2024/03/31 07:23:39;;;;;;;61.17;7.93;;;21.00;35.00;;;;;;5038975;28;20048;-78
2024/03/31 07:26:05;;;;;;;51.83;6.68;;;21.10;34.80;;;;;;5055370;28;20056;-78
2024/03/31 07:28:31;;;;;;;60.35;8.23;;;21.10;34.80;;;;;;5064464;28;20048;-78
2024/03/31 07:30:57;;;;;;;60.83;7.75;;;21.10;34.80;;;;;;5039215;28;20491;-78
2024/03/31 07:33:25;;;;;;;63.88;6.82;;;21.20;35.50;;;;;;5039994;28;20107;-78
2024/03/31 07:35:55;;;;;;;69.25;7.68;;;21.30;34.90;;;;;;5042364;28;20053;-78
2024/03/31 07:38:21;;;;;;;58.00;8.07;;;21.40;34.50;;;;;;5038834;28;20381;-79
2024/03/31 07:40:47;;;;;;;74.90;8.30;;;21.50;34.60;;;;;;5061102;28;20055;-79
2024/03/31 07:43:22;;;;;;;73.47;9.05;;;21.60;34.70;;;;;;5039354;28;20048;-79
2024/03/31 07:45:48;;;;;;;69.47;7.55;;;21.60;34.10;;;;;;5023712;28;20049;-79
2024/03/31 07:48:15;;;;;;;60.00;8.45;;;21.60;34.30;;;;;;5055514;28;20114;-79
2024/03/31 07:50:41;;;;;;;74.50;8.18;;;21.60;34.20;;;;;;5039000;28;20060;-79
2024/03/31 07:53:07;;;;;;;72.88;8.25;;;21.60;34.20;;;;;;5038897;28;20063;-79
2024/03/31 07:55:33;;;;;;;66.05;7.38;;;21.60;34.20;;;;;;5044862;28;20124;-79
2024/03/31 07:57:58;;;;;;;56.83;8.00;;;21.60;34.20;;;;;;5038714;28;20127;-79
2024/03/31 08:00:24;;;;;;;60.67;8.32;;;21.50;34.40;;;;;;5065762;28;20380;-79
2024/03/31 08:02:52;;;;;;;61.65;8.02;;;21.50;34.80;;;;;;5039786;28;20135;-79
2024/03/31 08:05:18;;;;;;;57.97;8.15;;;21.50;34.60;;;;;;5036585;28;20048;-79
2024/03/31 08:07:44;;;;;;;74.95;8.90;;;21.50;34.90;;;;;;5038623;28;20052;-79
2024/03/31 08:10:10;;;;;;;55.33;7.10;;;21.60;34.50;;;;;;5031603;28;20075;-79
2024/03/31 08:12:36;;;;;;;65.00;7.47;;;21.50;34.90;;;;;;5038087;28;20132;-79
2024/03/31 08:15:04;;;;;;;57.65;6.47;;;21.50;34.50;;;;;;5054788;28;20045;-79
2024/03/31 08:17:30;;;;;;;66.13;7.10;;;21.40;34.80;;;;;;5055141;28;20052;-79
2024/03/31 08:19:56;;;;;;;59.55;6.43;;;21.40;34.70;;;;;;5055614;28;20380;-79
2024/03/31 08:22:22;;;;;;;65.10;7.65;;;21.40;34.70;;;;;;5055132;28;20058;-79
2024/03/31 08:24:48;;;;;;;42.53;6.75;;;21.40;34.50;;;;;;5038563;28;20464;-79
2024/03/31 08:27:14;;;;;;;69.38;7.97;;;21.40;34.50;;;;;;5038268;28;20162;-79
2024/03/31 08:29:40;;;;;;;48.00;5.93;;;21.30;34.40;;;;;;5038680;28;20060;-79
2024/03/31 08:32:08;;;;;;;52.20;6.20;;;21.30;34.30;;;;;;5042260;28;20061;-79
2024/03/31 08:34:34;;;;;;;58.35;7.18;;;21.30;34.10;;;;;;5040036;28;20048;-79
2024/03/31 08:37:00;;;;;;;50.17;6.18;;;21.30;33.70;;;;;;5036906;28;20539;-79
2024/03/31 08:39:29;;;;;;;54.72;6.75;;;21.20;33.50;;;;;;5031344;28;20057;-79
2024/03/31 08:42:01;;;;;;;49.90;6.13;;;21.20;33.70;;;;;;5054458;28;20044;-79
2024/03/31 08:44:28;;;;;;;51.63;6.32;;;21.20;33.90;;;;;;5053309;28;20473;-78
2024/03/31 08:46:56;;;;;;;41.83;6.72;;;21.20;33.50;;;;;;5054616;28;20064;-78
2024/03/31 08:49:22;;;;;;;64.13;7.15;;;21.20;33.60;;;;;;5056101;28;20044;-78
2024/03/31 08:51:48;;;;;;;53.58;7.07;;;21.20;33.50;;;;;;5054911;28;20048;-79
2024/03/31 08:54:14;;;;;;;48.42;5.90;;;21.20;33.60;;;;;;5037558;28;20393;-78
2024/03/31 08:56:41;;;;;;;68.53;7.63;;;21.30;34.00;;;;;;5054752;28;20858;-79
2024/03/31 08:59:07;;;;;;;59.97;5.80;;;21.20;33.80;;;;;;5037772;28;20594;-79
2024/03/31 09:01:35;;;;;;;53.83;6.57;;;21.30;33.60;;;;;;5054764;28;20049;-79
2024/03/31 09:04:03;;;;;;;58.92;6.22;;;21.30;33.60;;;;;;5055264;28;20056;-79
2024/03/31 09:06:30;;;;;;;59.13;6.65;;;21.30;33.70;;;;;;5052896;28;20484;-79
2024/03/31 09:09:05;;;;;;;56.38;6.97;;;21.30;33.90;;;;;;5034309;28;20052;-78
2024/03/31 09:11:31;;;;;;;49.25;6.65;;;21.40;33.70;;;;;;5037790;28;20056;-79
2024/03/31 09:14:00;;;;;;;52.42;5.72;;;21.40;33.50;;;;;;5054559;28;20071;-78
2024/03/31 09:16:26;;;;;;;46.20;6.05;;;21.40;33.30;;;;;;5037488;28;20059;-79
2024/03/31 09:18:52;;;;;;;50.47;6.38;;;21.30;33.50;;;;;;5038605;28;20487;-79
2024/03/31 09:21:20;;;;;;;51.92;6.22;;;21.30;33.30;;;;;;5058089;28;20063;-79
2024/03/31 09:23:46;;;;;;;58.20;5.65;;;21.30;33.40;;;;;;5051357;28;20052;-79
2024/03/31 09:26:12;;;;;;;42.92;5.63;;;21.30;33.10;;;;;;5041200;28;20473;-79
2024/03/31 09:28:38;;;;;;;47.67;5.57;;;21.30;33.30;;;;;;5057929;28;20106;-79
2024/03/31 09:31:04;;;;;;;40.60;5.65;;;21.30;33.20;;;;;;5054402;28;20059;-81
2024/03/31 09:33:37;;;;;;;46.08;5.65;;;21.30;32.90;;;;;;5041091;28;20049;-82
2024/03/31 09:36:05;;;;;;;33.47;4.70;;;21.30;33.20;;;;;;5057268;28;20052;-82
2024/03/31 09:38:31;;;;;;;35.92;4.47;;;21.30;32.60;;;;;;5036311;28;20084;-81
2024/03/31 09:40:58;;;;;;;36.65;4.32;;;21.30;32.60;;;;;;5040955;28;20048;-82
2024/03/31 09:43:25;;;;;;;32.33;4.32;;;21.30;32.20;;;;;;5057681;28;20381;-81
2024/03/31 09:45:51;;;;;;;32.92;5.05;;;21.40;32.40;;;;;;5040854;28;20112;-82
2024/03/31 09:48:25;;;;;;;30.35;4.32;;;21.50;32.40;;;;;;5057396;28;20060;-82
2024/03/31 09:51:02;;;;;;;48.85;5.07;;;21.50;32.00;;;;;;5039965;28;20505;-82
2024/03/31 09:53:29;;;;;;;36.38;4.10;;;21.60;31.80;;;;;;5040792;28;20067;-82
2024/03/31 09:56:07;;;;;;;42.30;4.40;;;21.70;31.80;;;;;;5061236;28;20048;-82
2024/03/31 09:58:35;;;;;;;43.20;4.45;;;21.90;31.50;;;;;;5040948;28;20377;-82
2024/03/31 10:01:05;;;;;;;27.65;4.35;;;21.90;31.70;;;;;;5056832;28;20049;-82
2024/03/31 10:03:36;;;;;;;40.65;5.72;;;22.10;31.60;;;;;;5041038;28;20055;-82
2024/03/31 10:06:06;;;;;;;35.00;4.43;;;22.10;31.10;;;;;;5040860;28;20064;-82
2024/03/31 10:08:34;;;;;;;43.83;5.10;;;22.20;30.70;;;;;;5039965;28;20465;-82
2024/03/31 10:11:01;;;;;;;32.55;5.75;;;22.30;30.90;;;;;;5081930;28;20053;-82
2024/03/31 10:13:28;;;;;;;30.15;4.07;;;22.50;31.00;;;;;;5040099;28;20052;-82
2024/03/31 10:15:57;;;;;;;25.63;4.05;;;22.80;31.10;;;;;;5055769;28;20057;-82
2024/03/31 10:18:25;;;;;;;40.53;4.97;;;23.10;30.60;;;;;;5024613;28;20052;-82
2024/03/31 10:20:51;;;;;;;28.60;4.45;;;23.20;30.10;;;;;;5039503;28;20060;-82
2024/03/31 10:23:25;;;;;;;38.42;4.32;;;23.30;30.20;;;;;;5039863;28;20053;-83
2024/03/31 10:25:52;;;;;;;42.22;4.72;;;23.50;30.20;;;;;;5039879;28;20056;-82
2024/03/31 10:28:19;;;;;;;27.48;3.72;;;23.70;30.10;;;;;;5057658;28;20415;-83
2024/03/31 10:30:45;;;;;;;40.65;3.78;;;23.80;29.80;;;;;;5038363;28;20110;-83
2024/03/31 10:33:12;;;;;;;37.00;3.97;;;24.00;29.70;;;;;;5040005;28;20064;-82
2024/03/31 10:35:41;;;;;;;43.75;5.55;;;24.20;29.50;;;;;;5063547;28;20048;-82
2024/03/31 10:38:11;;;;;;;30.20;4.45;;;24.40;29.50;;;;;;5039538;28;20082;-83
2024/03/31 10:40:40;;;;;;;39.03;4.88;;;24.40;29.00;;;;;;5038124;28;20425;-82
2024/03/31 10:43:07;;;;;;;38.80;4.47;;;24.60;29.40;;;;;;5056204;28;20051;-83
2024/03/31 10:45:33;;;;;;;33.85;4.25;;;24.60;29.00;;;;;;5037794;28;20053;-83
2024/03/31 10:47:59;;;;;;;29.98;3.58;;;24.50;29.10;;;;;;5039618;28;20064;-83
2024/03/31 10:50:26;;;;;;;27.42;4.28;;;24.70;29.30;;;;;;5056160;28;20071;-83
2024/03/31 10:52:52;;;;;;;32.80;4.13;;;24.70;29.20;;;;;;5041346;28;20064;-83
2024/03/31 10:55:20;;;;;;;25.85;4.38;;;24.60;29.20;;;;;;5039675;28;20794;-83
2024/03/31 10:57:58;;;;;;;42.33;5.07;;;24.60;29.30;;;;;;5055746;28;20049;-82
2024/03/31 11:00:24;;;;;;;40.47;4.68;;;24.50;29.20;;;;;;5039308;28;20056;-84
2024/03/31 11:02:52;;;;;;;49.78;5.07;;;24.50;28.90;;;;;;5055997;28;20060;-84
2024/03/31 11:05:20;;;;;;;36.35;4.53;;;24.50;28.80;;;;;;5060401;28;20064;-83
2024/03/31 11:07:50;;;;;;;43.55;3.95;;;24.50;28.90;;;;;;5038847;28;20059;-84
2024/03/31 11:10:19;;;;;;;35.42;4.43;;;24.50;29.20;;;;;;5034815;28;20053;-84
2024/03/31 11:12:46;;;;;;;38.38;4.90;;;24.60;29.50;;;;;;5038970;28;20057;-82
2024/03/31 11:15:14;;;;;;;47.38;5.30;;;24.60;30.00;;;;;;5038788;28;20114;-83
2024/03/31 11:17:42;;;;;;;31.95;4.40;;;24.60;29.10;;;;;;5055661;28;20075;-84
2024/03/31 11:20:11;;;;;;;36.53;5.13;;;24.70;29.30;;;;;;5036868;28;20052;-80
2024/03/31 11:22:39;;;;;;;30.98;4.60;;;24.80;29.80;;;;;;5039267;28;20059;-80
2024/03/31 11:25:06;;;;;;;39.05;4.10;;;24.80;29.70;;;;;;5038515;28;20052;-79
2024/03/31 11:27:33;;;;;;;41.85;5.03;;;24.90;30.20;;;;;;5039007;28;20056;-80
2024/03/31 11:30:00;;;;;;;31.27;4.43;;;25.00;30.20;;;;;;5038432;28;20063;-81
2024/03/31 11:32:27;;;;;;;45.05;4.55;;;25.10;30.10;;;;;;5051731;28;20114;-81
2024/03/31 11:34:53;;;;;;;38.63;4.65;;;25.30;30.20;;;;;;5055610;28;20630;-79
2024/03/31 11:37:20;;;;;;;35.28;4.85;;;25.40;30.00;;;;;;5038806;28;20060;-78
2024/03/31 11:39:45;;;;;;;45.63;6.18;;;25.50;29.90;;;;;;5056105;28;20656;-78
2024/03/31 11:42:13;;;;;;;32.85;4.75;;;25.80;30.10;;;;;;5051343;28;20113;-78
2024/03/31 11:44:40;;;;;;;41.85;5.75;;;26.00;29.70;;;;;;5037356;28;20056;-78
2024/03/31 11:47:07;;;;;;;43.45;5.85;;;26.40;30.20;;;;;;5028510;28;20476;-78
2024/03/31 11:49:35;;;;;;;55.72;6.60;;;27.10;29.30;;;;;;5038279;28;20063;-78
2024/03/31 11:52:02;;;;;;;52.08;6.30;;;27.60;29.60;;;;;;5037404;28;20052;-78
2024/03/31 11:54:29;;;;;;;54.42;8.20;;;28.50;29.30;;;;;;5038868;28;20064;-79
2024/03/31 11:56:56;;;;;;;48.40;6.68;;;29.40;27.90;;;;;;5051209;28;20447;-79
2024/03/31 11:59:22;;;;;;;53.47;7.25;;;30.10;26.90;;;;;;5037363;28;20324;-79
2024/03/31 12:02:01;;;;;;;71.95;7.97;;;30.80;26.50;;;;;;5029587;28;20814;-80
2024/03/31 12:04:27;;;;;;;61.38;7.82;;;31.50;26.50;;;;;;5051189;28;20055;-79
2024/03/31 12:06:56;;;;;;;60.33;8.85;;;32.10;25.20;;;;;;5037554;28;20053;-79
2024/03/31 12:09:26;;;;;;;64.35;7.78;;;32.90;24.60;;;;;;5051884;28;20060;-80
2024/03/31 12:11:54;;;;;;;60.03;7.57;;;33.90;23.00;;;;;;5037519;28;20052;-79
2024/03/31 12:14:21;;;;;;;61.83;9.18;;;33.90;22.10;;;;;;5037793;28;20373;-79
2024/03/31 12:16:49;;;;;;;60.70;8.70;;;34.50;20.80;;;;;;5032899;28;20128;-79
2024/03/31 12:19:15;;;;;;;66.72;8.98;;;34.00;21.50;;;;;;5053636;28;20079;-79
2024/03/31 12:21:41;;;;;;;53.53;7.82;;;33.30;21.40;;;;;;5054080;28;20480;-78
2024/03/31 12:24:09;;;;;;;70.53;9.02;;;32.50;22.00;;;;;;5039975;28;20052;-78
2024/03/31 12:26:37;;;;;;;53.75;7.43;;;31.50;22.30;;;;;;5038091;28;20060;-78
2024/03/31 12:29:04;;;;;;;67.40;8.65;;;31.20;23.80;;;;;;5054427;28;20060;-78
2024/03/31 12:31:30;;;;;;;58.88;8.25;;;31.30;22.60;;;;;;5037570;28;20048;-79